sensor_id;sensor_type;location;lat;lon;timestamp;P1;durP1;ratioP1;P2;durP2;ratioP2
70303;SDS011;57712;48.752;11.348;2024-03-23T00:54:02;10.00;;;6.15;;
70303;SDS011;57712;48.752;11.348;2024-03-23T00:56:28;11.18;;;6.60;;
70303;SDS011;57712;48.752;11.348;2024-03-23T00:58:54;11.73;;;6.38;;
70303;SDS011;57712;48.752;11.348;2024-03-23T01:01:20;13.10;;;6.70;;
70303;SDS011;57712;48.752;11.348;2024-03-23T01:03:46;11.00;;;6.47;;
70303;SDS011;57712;48.752;11.348;2024-03-23T01:06:12;10.90;;;6.30;;
70303;SDS011;57712;48.752;11.348;2024-03-23T01:08:37;12.00;;;7.13;;
70303;SDS011;57712;48.752;11.348;2024-03-23T01:11:03;11.93;;;6.70;;
70303;SDS011;57712;48.752;11.348;2024-03-23T01:13:29;11.98;;;7.05;;
70303;SDS011;57712;48.752;11.348;2024-03-23T01:15:56;10.80;;;6.90;;
70303;SDS011;57712;48.752;11.348;2024-03-23T01:18:22;12.00;;;6.75;;
70303;SDS011;57712;48.752;11.348;2024-03-23T01:20:49;13.00;;;7.53;;
70303;SDS011;57712;48.752;11.348;2024-03-23T01:23:15;11.32;;;6.60;;
70303;SDS011;57712;48.752;11.348;2024-03-23T01:25:41;10.57;;;6.88;;
70303;SDS011;57712;48.752;11.348;2024-03-23T01:28:07;13.07;;;7.40;;
70303;SDS011;57712;48.752;11.348;2024-03-23T01:30:33;12.40;;;7.05;;
70303;SDS011;57712;48.752;11.348;2024-03-23T01:32:59;11.20;;;6.97;;
70303;SDS011;57712;48.752;11.348;2024-03-23T01:35:24;11.73;;;6.73;;
70303;SDS011;57712;48.752;11.348;2024-03-23T01:37:50;11.93;;;7.43;;
70303;SDS011;57712;48.752;11.348;2024-03-23T01:40:16;11.97;;;6.87;;
70303;SDS011;57712;48.752;11.348;2024-03-23T01:42:42;11.85;;;6.28;;
70303;SDS011;57712;48.752;11.348;2024-03-23T01:45:08;10.60;;;6.23;;
70303;SDS011;57712;48.752;11.348;2024-03-23T01:47:35;11.35;;;6.10;;
70303;SDS011;57712;48.752;11.348;2024-03-23T01:50:01;12.63;;;6.93;;
70303;SDS011;57712;48.752;11.348;2024-03-23T01:52:27;10.27;;;6.17;;
70303;SDS011;57712;48.752;11.348;2024-03-23T01:54:53;13.02;;;6.20;;
70303;SDS011;57712;48.752;11.348;2024-03-23T01:57:22;11.18;;;6.57;;
70303;SDS011;57712;48.752;11.348;2024-03-23T01:59:47;9.90;;;5.95;;
70303;SDS011;57712;48.752;11.348;2024-03-23T02:02:13;10.43;;;6.10;;
70303;SDS011;57712;48.752;11.348;2024-03-23T02:04:39;10.63;;;6.50;;
70303;SDS011;57712;48.752;11.348;2024-03-23T02:07:08;9.37;;;6.00;;
70303;SDS011;57712;48.752;11.348;2024-03-23T02:09:33;11.27;;;5.85;;
70303;SDS011;57712;48.752;11.348;2024-03-23T02:12:01;9.57;;;5.47;;
70303;SDS011;57712;48.752;11.348;2024-03-23T02:14:27;10.20;;;5.57;;
70303;SDS011;57712;48.752;11.348;2024-03-23T02:16:53;9.65;;;5.38;;
70303;SDS011;57712;48.752;11.348;2024-03-23T02:19:18;10.70;;;5.70;;
70303;SDS011;57712;48.752;11.348;2024-03-23T02:21:44;11.82;;;5.72;;
70303;SDS011;57712;48.752;11.348;2024-03-23T02:24:09;9.07;;;5.40;;
70303;SDS011;57712;48.752;11.348;2024-03-23T02:26:35;9.60;;;5.20;;
70303;SDS011;57712;48.752;11.348;2024-03-23T02:29:01;10.85;;;5.43;;
70303;SDS011;57712;48.752;11.348;2024-03-23T02:31:27;10.53;;;5.30;;
70303;SDS011;57712;48.752;11.348;2024-03-23T02:33:52;8.90;;;4.70;;
70303;SDS011;57712;48.752;11.348;2024-03-23T02:36:18;8.80;;;4.60;;
70303;SDS011;57712;48.752;11.348;2024-03-23T02:38:44;8.45;;;4.95;;
70303;SDS011;57712;48.752;11.348;2024-03-23T02:41:10;8.98;;;5.13;;
70303;SDS011;57712;48.752;11.348;2024-03-23T02:43:36;8.23;;;4.47;;
70303;SDS011;57712;48.752;11.348;2024-03-23T02:46:01;7.93;;;4.63;;
70303;SDS011;57712;48.752;11.348;2024-03-23T02:48:28;9.03;;;4.27;;
70303;SDS011;57712;48.752;11.348;2024-03-23T02:50:53;8.70;;;4.70;;
70303;SDS011;57712;48.752;11.348;2024-03-23T02:53:19;8.05;;;4.30;;
70303;SDS011;57712;48.752;11.348;2024-03-23T02:55:45;9.47;;;4.43;;
70303;SDS011;57712;48.752;11.348;2024-03-23T02:58:11;7.93;;;4.57;;
70303;SDS011;57712;48.752;11.348;2024-03-23T03:00:36;8.60;;;4.13;;
70303;SDS011;57712;48.752;11.348;2024-03-23T03:03:02;7.40;;;4.33;;
70303;SDS011;57712;48.752;11.348;2024-03-23T03:05:28;7.88;;;4.10;;
70303;SDS011;57712;48.752;11.348;2024-03-23T03:07:54;7.80;;;3.80;;
70303;SDS011;57712;48.752;11.348;2024-03-23T03:10:19;7.70;;;3.90;;
70303;SDS011;57712;48.752;11.348;2024-03-23T03:12:45;6.67;;;3.43;;
70303;SDS011;57712;48.752;11.348;2024-03-23T03:15:10;7.68;;;3.63;;
70303;SDS011;57712;48.752;11.348;2024-03-23T03:17:36;6.73;;;3.90;;
70303;SDS011;57712;48.752;11.348;2024-03-23T03:20:02;6.82;;;3.13;;
70303;SDS011;57712;48.752;11.348;2024-03-23T03:22:30;7.32;;;3.80;;
70303;SDS011;57712;48.752;11.348;2024-03-23T03:24:55;7.63;;;3.97;;
70303;SDS011;57712;48.752;11.348;2024-03-23T03:27:21;8.10;;;3.45;;
70303;SDS011;57712;48.752;11.348;2024-03-23T03:29:48;7.72;;;3.45;;
70303;SDS011;57712;48.752;11.348;2024-03-23T03:32:14;8.43;;;3.30;;
70303;SDS011;57712;48.752;11.348;2024-03-23T03:34:39;5.88;;;3.00;;
70303;SDS011;57712;48.752;11.348;2024-03-23T03:37:05;6.23;;;3.10;;
70303;SDS011;57712;48.752;11.348;2024-03-23T03:39:30;5.87;;;2.87;;
70303;SDS011;57712;48.752;11.348;2024-03-23T03:41:56;6.25;;;3.33;;
70303;SDS011;57712;48.752;11.348;2024-03-23T03:44:22;8.33;;;3.00;;
70303;SDS011;57712;48.752;11.348;2024-03-23T03:46:48;5.50;;;2.87;;
70303;SDS011;57712;48.752;11.348;2024-03-23T03:49:13;9.97;;;2.97;;
70303;SDS011;57712;48.752;11.348;2024-03-23T03:51:39;9.10;;;3.67;;
70303;SDS011;57712;48.752;11.348;2024-03-23T03:54:04;5.50;;;2.70;;
70303;SDS011;57712;48.752;11.348;2024-03-23T03:56:30;6.93;;;2.97;;
70303;SDS011;57712;48.752;11.348;2024-03-23T03:58:56;6.45;;;2.95;;
70303;SDS011;57712;48.752;11.348;2024-03-23T04:01:21;5.83;;;2.60;;
70303;SDS011;57712;48.752;11.348;2024-03-23T04:03:47;6.50;;;3.00;;
70303;SDS011;57712;48.752;11.348;2024-03-23T04:06:18;6.63;;;2.70;;
70303;SDS011;57712;48.752;11.348;2024-03-23T04:08:44;6.68;;;2.80;;
70303;SDS011;57712;48.752;11.348;2024-03-23T04:11:09;5.20;;;2.20;;
70303;SDS011;57712;48.752;11.348;2024-03-23T04:13:35;5.65;;;2.63;;
70303;SDS011;57712;48.752;11.348;2024-03-23T04:16:00;6.50;;;2.40;;
70303;SDS011;57712;48.752;11.348;2024-03-23T04:18:26;8.07;;;2.50;;
70303;SDS011;57712;48.752;11.348;2024-03-23T04:20:52;6.32;;;2.42;;
70303;SDS011;57712;48.752;11.348;2024-03-23T04:23:17;5.10;;;2.50;;
70303;SDS011;57712;48.752;11.348;2024-03-23T04:25:43;6.47;;;2.33;;
70303;SDS011;57712;48.752;11.348;2024-03-23T04:28:09;7.07;;;2.70;;
70303;SDS011;57712;48.752;11.348;2024-03-23T04:30:36;5.90;;;2.42;;
70303;SDS011;57712;48.752;11.348;2024-03-23T04:33:02;5.43;;;2.30;;
70303;SDS011;57712;48.752;11.348;2024-03-23T04:35:28;5.55;;;2.55;;
70303;SDS011;57712;48.752;11.348;2024-03-23T04:37:54;6.67;;;2.50;;
70303;SDS011;57712;48.752;11.348;2024-03-23T04:40:21;6.35;;;3.00;;
70303;SDS011;57712;48.752;11.348;2024-03-23T04:42:46;5.40;;;2.42;;
70303;SDS011;57712;48.752;11.348;2024-03-23T04:45:12;7.27;;;2.87;;
70303;SDS011;57712;48.752;11.348;2024-03-23T04:47:38;5.97;;;2.28;;
70303;SDS011;57712;48.752;11.348;2024-03-23T04:50:04;6.28;;;2.60;;
70303;SDS011;57712;48.752;11.348;2024-03-23T04:52:30;8.30;;;3.23;;
70303;SDS011;57712;48.752;11.348;2024-03-23T04:54:56;7.88;;;3.25;;
70303;SDS011;57712;48.752;11.348;2024-03-23T04:57:22;6.30;;;3.30;;
70303;SDS011;57712;48.752;11.348;2024-03-23T04:59:51;7.80;;;3.93;;
70303;SDS011;57712;48.752;11.348;2024-03-23T05:02:26;7.32;;;3.47;;
70303;SDS011;57712;48.752;11.348;2024-03-23T05:04:52;7.63;;;3.40;;
70303;SDS011;57712;48.752;11.348;2024-03-23T05:07:18;8.87;;;4.57;;
70303;SDS011;57712;48.752;11.348;2024-03-23T05:09:43;9.45;;;4.00;;
70303;SDS011;57712;48.752;11.348;2024-03-23T05:12:09;9.67;;;4.30;;
70303;SDS011;57712;48.752;11.348;2024-03-23T05:14:35;9.30;;;5.18;;
70303;SDS011;57712;48.752;11.348;2024-03-23T05:17:00;9.27;;;4.50;;
70303;SDS011;57712;48.752;11.348;2024-03-23T05:19:26;8.40;;;4.05;;
70303;SDS011;57712;48.752;11.348;2024-03-23T05:21:52;10.17;;;4.90;;
70303;SDS011;57712;48.752;11.348;2024-03-23T05:24:18;8.82;;;4.60;;
70303;SDS011;57712;48.752;11.348;2024-03-23T05:26:43;8.87;;;5.27;;
70303;SDS011;57712;48.752;11.348;2024-03-23T05:29:09;9.95;;;5.28;;
70303;SDS011;57712;48.752;11.348;2024-03-23T05:31:39;8.40;;;4.60;;
70303;SDS011;57712;48.752;11.348;2024-03-23T05:34:07;9.25;;;4.90;;
70303;SDS011;57712;48.752;11.348;2024-03-23T05:36:34;9.27;;;4.53;;
70303;SDS011;57712;48.752;11.348;2024-03-23T05:39:01;9.25;;;4.93;;
70303;SDS011;57712;48.752;11.348;2024-03-23T05:44:34;11.77;;;6.22;;
70303;SDS011;57712;48.752;11.348;2024-03-23T05:47:00;12.43;;;7.28;;
70303;SDS011;57712;48.752;11.348;2024-03-23T05:49:26;10.13;;;5.37;;
70303;SDS011;57712;48.752;11.348;2024-03-23T05:51:52;10.40;;;5.13;;
70303;SDS011;57712;48.752;11.348;2024-03-23T05:54:17;10.73;;;5.03;;
70303;SDS011;57712;48.752;11.348;2024-03-23T05:56:43;9.50;;;5.23;;
70303;SDS011;57712;48.752;11.348;2024-03-23T05:59:08;9.63;;;4.97;;
70303;SDS011;57712;48.752;11.348;2024-03-23T06:01:34;8.17;;;4.57;;
70303;SDS011;57712;48.752;11.348;2024-03-23T06:04:00;10.35;;;5.13;;
70303;SDS011;57712;48.752;11.348;2024-03-23T06:06:26;8.52;;;4.63;;
70303;SDS011;57712;48.752;11.348;2024-03-23T06:08:55;8.68;;;4.82;;
70303;SDS011;57712;48.752;11.348;2024-03-23T06:11:21;9.20;;;5.10;;
70303;SDS011;57712;48.752;11.348;2024-03-23T06:13:46;8.10;;;4.57;;
70303;SDS011;57712;48.752;11.348;2024-03-23T06:16:12;8.93;;;3.90;;
70303;SDS011;57712;48.752;11.348;2024-03-23T06:18:37;6.93;;;3.33;;
70303;SDS011;57712;48.752;11.348;2024-03-23T06:21:05;7.38;;;3.15;;
70303;SDS011;57712;48.752;11.348;2024-03-23T06:23:41;7.47;;;3.28;;
70303;SDS011;57712;48.752;11.348;2024-03-23T06:26:07;9.15;;;3.30;;
70303;SDS011;57712;48.752;11.348;2024-03-23T06:28:33;6.68;;;3.45;;
70303;SDS011;57712;48.752;11.348;2024-03-23T06:30:59;5.70;;;2.70;;
70303;SDS011;57712;48.752;11.348;2024-03-23T06:33:26;7.57;;;2.67;;
70303;SDS011;57712;48.752;11.348;2024-03-23T06:35:51;6.77;;;2.97;;
70303;SDS011;57712;48.752;11.348;2024-03-23T06:38:18;9.80;;;3.90;;
70303;SDS011;57712;48.752;11.348;2024-03-23T06:40:44;6.45;;;3.30;;
70303;SDS011;57712;48.752;11.348;2024-03-23T06:43:14;8.10;;;3.10;;
70303;SDS011;57712;48.752;11.348;2024-03-23T06:45:39;10.07;;;3.87;;
70303;SDS011;57712;48.752;11.348;2024-03-23T06:48:05;5.80;;;2.92;;
70303;SDS011;57712;48.752;11.348;2024-03-23T06:50:33;7.67;;;2.90;;
70303;SDS011;57712;48.752;11.348;2024-03-23T06:52:59;5.95;;;2.65;;
70303;SDS011;57712;48.752;11.348;2024-03-23T06:55:27;9.25;;;3.25;;
70303;SDS011;57712;48.752;11.348;2024-03-23T06:57:53;6.03;;;2.90;;
70303;SDS011;57712;48.752;11.348;2024-03-23T07:00:19;6.50;;;2.70;;
70303;SDS011;57712;48.752;11.348;2024-03-23T07:02:45;8.10;;;3.90;;
70303;SDS011;57712;48.752;11.348;2024-03-23T07:05:11;8.27;;;4.57;;
70303;SDS011;57712;48.752;11.348;2024-03-23T07:07:37;8.40;;;4.53;;
70303;SDS011;57712;48.752;11.348;2024-03-23T07:10:04;7.72;;;4.25;;
70303;SDS011;57712;48.752;11.348;2024-03-23T07:12:32;11.15;;;4.30;;
70303;SDS011;57712;48.752;11.348;2024-03-23T07:14:57;7.87;;;3.70;;
70303;SDS011;57712;48.752;11.348;2024-03-23T07:17:23;7.63;;;3.78;;
70303;SDS011;57712;48.752;11.348;2024-03-23T07:19:48;7.80;;;4.00;;
70303;SDS011;57712;48.752;11.348;2024-03-23T07:22:14;8.93;;;4.70;;
70303;SDS011;57712;48.752;11.348;2024-03-23T07:24:41;13.45;;;5.80;;
70303;SDS011;57712;48.752;11.348;2024-03-23T07:27:06;10.82;;;5.50;;
70303;SDS011;57712;48.752;11.348;2024-03-23T07:29:35;9.87;;;5.70;;
70303;SDS011;57712;48.752;11.348;2024-03-23T07:32:01;9.93;;;5.10;;
70303;SDS011;57712;48.752;11.348;2024-03-23T07:34:27;13.82;;;5.80;;
70303;SDS011;57712;48.752;11.348;2024-03-23T07:36:53;10.87;;;4.90;;
70303;SDS011;57712;48.752;11.348;2024-03-23T07:39:18;10.07;;;4.57;;
70303;SDS011;57712;48.752;11.348;2024-03-23T07:41:44;8.93;;;3.42;;
70303;SDS011;57712;48.752;11.348;2024-03-23T07:44:10;8.70;;;3.63;;
70303;SDS011;57712;48.752;11.348;2024-03-23T07:46:36;8.70;;;3.50;;
70303;SDS011;57712;48.752;11.348;2024-03-23T07:49:03;8.63;;;3.92;;
70303;SDS011;57712;48.752;11.348;2024-03-23T07:51:29;8.13;;;3.90;;
70303;SDS011;57712;48.752;11.348;2024-03-23T07:53:56;9.50;;;4.25;;
70303;SDS011;57712;48.752;11.348;2024-03-23T07:56:25;9.63;;;4.30;;
70303;SDS011;57712;48.752;11.348;2024-03-23T07:58:50;7.30;;;3.50;;
70303;SDS011;57712;48.752;11.348;2024-03-23T08:01:17;9.25;;;4.22;;
70303;SDS011;57712;48.752;11.348;2024-03-23T08:03:43;8.82;;;3.60;;
70303;SDS011;57712;48.752;11.348;2024-03-23T08:06:10;8.37;;;4.03;;
70303;SDS011;57712;48.752;11.348;2024-03-23T08:08:38;8.95;;;3.97;;
70303;SDS011;57712;48.752;11.348;2024-03-23T08:11:04;8.65;;;3.80;;
70303;SDS011;57712;48.752;11.348;2024-03-23T08:13:30;8.30;;;3.40;;
70303;SDS011;57712;48.752;11.348;2024-03-23T08:15:59;9.53;;;3.50;;
70303;SDS011;57712;48.752;11.348;2024-03-23T08:18:26;8.07;;;3.63;;
70303;SDS011;57712;48.752;11.348;2024-03-23T08:20:59;7.88;;;3.45;;
70303;SDS011;57712;48.752;11.348;2024-03-23T08:23:28;7.50;;;3.20;;
70303;SDS011;57712;48.752;11.348;2024-03-23T08:25:59;7.25;;;2.50;;
70303;SDS011;57712;48.752;11.348;2024-03-23T08:28:25;6.75;;;2.47;;
70303;SDS011;57712;48.752;11.348;2024-03-23T08:30:52;6.30;;;2.70;;
70303;SDS011;57712;48.752;11.348;2024-03-23T08:33:18;6.57;;;2.78;;
70303;SDS011;57712;48.752;11.348;2024-03-23T08:35:54;6.10;;;2.60;;
70303;SDS011;57712;48.752;11.348;2024-03-23T08:38:21;7.22;;;2.90;;
70303;SDS011;57712;48.752;11.348;2024-03-23T08:40:56;6.88;;;2.22;;
70303;SDS011;57712;48.752;11.348;2024-03-23T08:43:23;6.15;;;2.42;;
70303;SDS011;57712;48.752;11.348;2024-03-23T08:45:49;5.60;;;1.90;;
70303;SDS011;57712;48.752;11.348;2024-03-23T08:48:14;5.60;;;2.10;;
70303;SDS011;57712;48.752;11.348;2024-03-23T08:50:41;6.07;;;2.40;;
70303;SDS011;57712;48.752;11.348;2024-03-23T08:53:06;6.68;;;2.60;;
70303;SDS011;57712;48.752;11.348;2024-03-23T08:55:32;5.80;;;2.07;;
70303;SDS011;57712;48.752;11.348;2024-03-23T08:57:58;5.20;;;1.70;;
70303;SDS011;57712;48.752;11.348;2024-03-23T09:00:23;7.90;;;2.37;;
70303;SDS011;57712;48.752;11.348;2024-03-23T09:02:49;4.70;;;1.70;;
70303;SDS011;57712;48.752;11.348;2024-03-23T09:05:15;4.50;;;1.10;;
70303;SDS011;57712;48.752;11.348;2024-03-23T09:07:41;5.65;;;1.30;;
70303;SDS011;57712;48.752;11.348;2024-03-23T09:10:06;5.20;;;1.47;;
70303;SDS011;57712;48.752;11.348;2024-03-23T09:12:33;5.03;;;1.50;;
70303;SDS011;57712;48.752;11.348;2024-03-23T09:14:58;4.53;;;1.17;;
70303;SDS011;57712;48.752;11.348;2024-03-23T09:17:24;5.40;;;1.93;;
70303;SDS011;57712;48.752;11.348;2024-03-23T09:19:50;4.38;;;1.20;;
70303;SDS011;57712;48.752;11.348;2024-03-23T09:22:15;4.50;;;1.20;;
70303;SDS011;57712;48.752;11.348;2024-03-23T09:24:41;4.18;;;1.30;;
70303;SDS011;57712;48.752;11.348;2024-03-23T09:27:07;4.93;;;1.33;;
70303;SDS011;57712;48.752;11.348;2024-03-23T09:29:33;5.38;;;1.20;;
70303;SDS011;57712;48.752;11.348;2024-03-23T09:31:58;4.93;;;1.20;;
70303;SDS011;57712;48.752;11.348;2024-03-23T09:34:24;4.43;;;1.13;;
70303;SDS011;57712;48.752;11.348;2024-03-23T09:36:52;4.63;;;1.10;;
70303;SDS011;57712;48.752;11.348;2024-03-23T09:39:18;3.92;;;0.90;;
70303;SDS011;57712;48.752;11.348;2024-03-23T09:41:44;3.72;;;0.85;;
70303;SDS011;57712;48.752;11.348;2024-03-23T09:44:11;4.67;;;1.27;;
70303;SDS011;57712;48.752;11.348;2024-03-23T09:46:36;3.78;;;0.90;;
70303;SDS011;57712;48.752;11.348;2024-03-23T09:49:05;3.50;;;0.63;;
70303;SDS011;57712;48.752;11.348;2024-03-23T09:51:37;3.40;;;0.83;;
70303;SDS011;57712;48.752;11.348;2024-03-23T09:54:02;3.30;;;0.90;;
70303;SDS011;57712;48.752;11.348;2024-03-23T09:56:28;4.43;;;1.10;;
70303;SDS011;57712;48.752;11.348;2024-03-23T09:59:06;3.67;;;0.83;;
70303;SDS011;57712;48.752;11.348;2024-03-23T10:01:32;3.10;;;0.70;;
70303;SDS011;57712;48.752;11.348;2024-03-23T10:03:58;3.00;;;0.60;;
70303;SDS011;57712;48.752;11.348;2024-03-23T10:06:27;7.50;;;0.90;;
70303;SDS011;57712;48.752;11.348;2024-03-23T10:08:52;4.20;;;0.50;;
70303;SDS011;57712;48.752;11.348;2024-03-23T10:11:20;3.17;;;0.55;;
70303;SDS011;57712;48.752;11.348;2024-03-23T10:13:46;3.47;;;0.88;;
70303;SDS011;57712;48.752;11.348;2024-03-23T10:16:20;4.27;;;0.70;;
70303;SDS011;57712;48.752;11.348;2024-03-23T10:18:47;4.70;;;0.68;;
70303;SDS011;57712;48.752;11.348;2024-03-23T10:21:13;4.63;;;0.63;;
70303;SDS011;57712;48.752;11.348;2024-03-23T10:23:40;3.15;;;0.65;;
70303;SDS011;57712;48.752;11.348;2024-03-23T10:28:58;3.75;;;0.80;;
70303;SDS011;57712;48.752;11.348;2024-03-23T10:31:30;4.82;;;1.10;;
70303;SDS011;57712;48.752;11.348;2024-03-23T10:33:56;3.70;;;0.80;;
70303;SDS011;57712;48.752;11.348;2024-03-23T10:36:24;3.35;;;0.63;;
70303;SDS011;57712;48.752;11.348;2024-03-23T10:38:51;3.30;;;0.70;;
70303;SDS011;57712;48.752;11.348;2024-03-23T10:41:18;3.67;;;0.70;;
70303;SDS011;57712;48.752;11.348;2024-03-23T10:43:47;3.72;;;0.70;;
70303;SDS011;57712;48.752;11.348;2024-03-23T10:46:14;4.03;;;0.90;;
70303;SDS011;57712;48.752;11.348;2024-03-23T10:48:40;3.40;;;0.90;;
70303;SDS011;57712;48.752;11.348;2024-03-23T10:51:09;3.63;;;0.80;;
70303;SDS011;57712;48.752;11.348;2024-03-23T10:53:36;3.65;;;0.90;;
70303;SDS011;57712;48.752;11.348;2024-03-23T10:56:04;5.45;;;1.30;;
70303;SDS011;57712;48.752;11.348;2024-03-23T10:58:33;5.20;;;1.40;;
70303;SDS011;57712;48.752;11.348;2024-03-23T11:01:03;3.90;;;0.95;;
70303;SDS011;57712;48.752;11.348;2024-03-23T11:06:02;4.03;;;1.02;;
70303;SDS011;57712;48.752;11.348;2024-03-23T11:08:32;4.73;;;1.20;;
70303;SDS011;57712;48.752;11.348;2024-03-23T11:11:12;3.75;;;1.15;;
70303;SDS011;57712;48.752;11.348;2024-03-23T11:13:49;3.58;;;1.17;;
70303;SDS011;57712;48.752;11.348;2024-03-23T11:16:17;3.40;;;0.85;;
70303;SDS011;57712;48.752;11.348;2024-03-23T11:19:33;3.60;;;0.73;;
70303;SDS011;57712;48.752;11.348;2024-03-23T11:21:59;3.80;;;0.70;;
70303;SDS011;57712;48.752;11.348;2024-03-23T11:24:25;3.88;;;0.75;;
70303;SDS011;57712;48.752;11.348;2024-03-23T11:26:50;3.40;;;0.63;;
70303;SDS011;57712;48.752;11.348;2024-03-23T11:29:16;4.90;;;1.10;;
70303;SDS011;57712;48.752;11.348;2024-03-23T11:31:50;4.20;;;1.30;;
70303;SDS011;57712;48.752;11.348;2024-03-23T11:34:17;4.15;;;0.80;;
70303;SDS011;57712;48.752;11.348;2024-03-23T11:36:44;4.13;;;1.03;;
70303;SDS011;57712;48.752;11.348;2024-03-23T11:39:11;4.30;;;1.13;;
70303;SDS011;57712;48.752;11.348;2024-03-23T11:41:55;3.50;;;1.17;;
70303;SDS011;57712;48.752;11.348;2024-03-23T11:44:22;3.80;;;1.00;;
70303;SDS011;57712;48.752;11.348;2024-03-23T11:46:52;4.07;;;0.90;;
70303;SDS011;57712;48.752;11.348;2024-03-23T11:51:49;4.95;;;1.40;;
70303;SDS011;57712;48.752;11.348;2024-03-23T11:54:16;4.72;;;1.45;;
70303;SDS011;57712;48.752;11.348;2024-03-23T11:56:58;4.77;;;1.30;;
70303;SDS011;57712;48.752;11.348;2024-03-23T11:59:34;4.30;;;1.00;;
70303;SDS011;57712;48.752;11.348;2024-03-23T12:02:08;4.32;;;1.50;;
70303;SDS011;57712;48.752;11.348;2024-03-23T12:04:41;4.95;;;1.50;;
70303;SDS011;57712;48.752;11.348;2024-03-23T12:09:40;5.75;;;1.60;;
70303;SDS011;57712;48.752;11.348;2024-03-23T12:14:42;6.57;;;1.65;;
70303;SDS011;57712;48.752;11.348;2024-03-23T12:17:26;6.47;;;2.10;;
70303;SDS011;57712;48.752;11.348;2024-03-23T12:19:52;6.90;;;2.20;;
70303;SDS011;57712;48.752;11.348;2024-03-23T12:22:21;5.28;;;1.60;;
70303;SDS011;57712;48.752;11.348;2024-03-23T12:24:47;4.90;;;1.40;;
70303;SDS011;57712;48.752;11.348;2024-03-23T12:27:13;7.10;;;2.20;;
70303;SDS011;57712;48.752;11.348;2024-03-23T12:29:40;6.73;;;1.30;;
70303;SDS011;57712;48.752;11.348;2024-03-23T12:32:07;7.05;;;2.20;;
70303;SDS011;57712;48.752;11.348;2024-03-23T12:34:33;5.82;;;1.88;;
70303;SDS011;57712;48.752;11.348;2024-03-23T12:36:59;5.57;;;1.60;;
70303;SDS011;57712;48.752;11.348;2024-03-23T12:39:24;6.33;;;1.60;;
70303;SDS011;57712;48.752;11.348;2024-03-23T12:41:50;6.18;;;1.70;;
70303;SDS011;57712;48.752;11.348;2024-03-23T12:44:18;5.70;;;1.80;;
70303;SDS011;57712;48.752;11.348;2024-03-23T12:46:43;4.60;;;1.47;;
70303;SDS011;57712;48.752;11.348;2024-03-23T12:49:09;5.95;;;1.50;;
70303;SDS011;57712;48.752;11.348;2024-03-23T12:51:35;6.20;;;1.75;;
70303;SDS011;57712;48.752;11.348;2024-03-23T12:54:01;8.03;;;1.80;;
70303;SDS011;57712;48.752;11.348;2024-03-23T12:56:26;7.93;;;2.30;;
70303;SDS011;57712;48.752;11.348;2024-03-23T12:58:55;6.68;;;1.85;;
70303;SDS011;57712;48.752;11.348;2024-03-23T13:01:25;6.50;;;1.80;;
70303;SDS011;57712;48.752;11.348;2024-03-23T13:03:51;6.90;;;1.52;;
70303;SDS011;57712;48.752;11.348;2024-03-23T13:06:17;6.55;;;1.85;;
70303;SDS011;57712;48.752;11.348;2024-03-23T13:08:44;4.90;;;1.20;;
70303;SDS011;57712;48.752;11.348;2024-03-23T13:11:10;5.65;;;2.00;;
70303;SDS011;57712;48.752;11.348;2024-03-23T13:13:36;4.80;;;1.43;;
70303;SDS011;57712;48.752;11.348;2024-03-23T13:16:03;7.03;;;1.90;;
70303;SDS011;57712;48.752;11.348;2024-03-23T13:18:32;7.05;;;2.42;;
70303;SDS011;57712;48.752;11.348;2024-03-23T13:20:58;7.63;;;2.30;;
70303;SDS011;57712;48.752;11.348;2024-03-23T13:23:24;8.27;;;1.90;;
70303;SDS011;57712;48.752;11.348;2024-03-23T13:25:53;5.53;;;1.50;;
70303;SDS011;57712;48.752;11.348;2024-03-23T13:28:20;8.10;;;2.38;;
70303;SDS011;57712;48.752;11.348;2024-03-23T13:30:50;7.57;;;1.73;;
70303;SDS011;57712;48.752;11.348;2024-03-23T13:33:19;5.97;;;1.83;;
70303;SDS011;57712;48.752;11.348;2024-03-23T13:35:52;6.57;;;1.67;;
70303;SDS011;57712;48.752;11.348;2024-03-23T13:38:18;6.03;;;2.05;;
70303;SDS011;57712;48.752;11.348;2024-03-23T13:40:54;6.83;;;2.30;;
70303;SDS011;57712;48.752;11.348;2024-03-23T13:43:21;7.75;;;2.30;;
70303;SDS011;57712;48.752;11.348;2024-03-23T13:45:49;7.88;;;2.35;;
70303;SDS011;57712;48.752;11.348;2024-03-23T13:48:18;6.18;;;2.05;;
70303;SDS011;57712;48.752;11.348;2024-03-23T13:51:01;7.15;;;1.85;;
70303;SDS011;57712;48.752;11.348;2024-03-23T13:53:28;7.90;;;2.50;;
70303;SDS011;57712;48.752;11.348;2024-03-23T13:55:54;8.40;;;2.22;;
70303;SDS011;57712;48.752;11.348;2024-03-23T13:58:20;7.97;;;2.13;;
70303;SDS011;57712;48.752;11.348;2024-03-23T14:00:47;7.88;;;2.00;;
70303;SDS011;57712;48.752;11.348;2024-03-23T14:03:13;8.57;;;2.13;;
70303;SDS011;57712;48.752;11.348;2024-03-23T14:05:39;8.00;;;2.75;;
70303;SDS011;57712;48.752;11.348;2024-03-23T14:08:06;6.18;;;1.65;;
70303;SDS011;57712;48.752;11.348;2024-03-23T14:10:33;5.63;;;1.40;;
70303;SDS011;57712;48.752;11.348;2024-03-23T14:12:58;7.57;;;1.57;;
70303;SDS011;57712;48.752;11.348;2024-03-23T14:15:27;5.25;;;1.25;;
70303;SDS011;57712;48.752;11.348;2024-03-23T14:17:53;6.40;;;1.50;;
70303;SDS011;57712;48.752;11.348;2024-03-23T14:20:20;5.30;;;1.33;;
70303;SDS011;57712;48.752;11.348;2024-03-23T14:22:46;5.50;;;1.20;;
70303;SDS011;57712;48.752;11.348;2024-03-23T14:25:12;5.13;;;0.80;;
70303;SDS011;57712;48.752;11.348;2024-03-23T14:27:38;6.68;;;1.00;;
70303;SDS011;57712;48.752;11.348;2024-03-23T14:30:03;6.23;;;1.07;;
70303;SDS011;57712;48.752;11.348;2024-03-23T14:32:34;6.22;;;1.10;;
70303;SDS011;57712;48.752;11.348;2024-03-23T14:35:03;5.03;;;1.00;;
70303;SDS011;57712;48.752;11.348;2024-03-23T14:37:29;6.68;;;1.10;;
70303;SDS011;57712;48.752;11.348;2024-03-23T14:39:58;6.37;;;0.60;;
70303;SDS011;57712;48.752;11.348;2024-03-23T14:42:24;7.82;;;0.80;;
70303;SDS011;57712;48.752;11.348;2024-03-23T14:44:50;5.25;;;0.47;;
70303;SDS011;57712;48.752;11.348;2024-03-23T14:47:17;4.63;;;0.40;;
70303;SDS011;57712;48.752;11.348;2024-03-23T14:49:43;4.35;;;0.68;;
70303;SDS011;57712;48.752;11.348;2024-03-23T14:52:16;4.50;;;0.93;;
70303;SDS011;57712;48.752;11.348;2024-03-23T14:54:44;6.05;;;0.70;;
70303;SDS011;57712;48.752;11.348;2024-03-23T14:57:10;4.72;;;0.73;;
70303;SDS011;57712;48.752;11.348;2024-03-23T14:59:37;5.28;;;1.15;;
70303;SDS011;57712;48.752;11.348;2024-03-23T15:02:06;6.32;;;0.82;;
70303;SDS011;57712;48.752;11.348;2024-03-23T15:04:32;8.90;;;2.40;;
70303;SDS011;57712;48.752;11.348;2024-03-23T15:06:59;6.70;;;1.58;;
70303;SDS011;57712;48.752;11.348;2024-03-23T15:09:25;6.03;;;0.80;;
70303;SDS011;57712;48.752;11.348;2024-03-23T15:11:51;9.63;;;2.30;;
70303;SDS011;57712;48.752;11.348;2024-03-23T15:14:16;9.38;;;2.42;;
70303;SDS011;57712;48.752;11.348;2024-03-23T15:16:42;6.70;;;1.17;;
70303;SDS011;57712;48.752;11.348;2024-03-23T15:19:11;7.75;;;1.60;;
70303;SDS011;57712;48.752;11.348;2024-03-23T15:21:40;6.63;;;1.57;;
70303;SDS011;57712;48.752;11.348;2024-03-23T15:24:06;4.45;;;0.52;;
70303;SDS011;57712;48.752;11.348;2024-03-23T15:26:32;5.82;;;1.00;;
70303;SDS011;57712;48.752;11.348;2024-03-23T15:28:58;7.27;;;1.30;;
70303;SDS011;57712;48.752;11.348;2024-03-23T15:31:24;22.95;;;7.18;;
70303;SDS011;57712;48.752;11.348;2024-03-23T15:33:53;7.80;;;2.08;;
70303;SDS011;57712;48.752;11.348;2024-03-23T15:36:24;7.20;;;1.07;;
70303;SDS011;57712;48.752;11.348;2024-03-23T15:38:49;13.50;;;4.15;;
70303;SDS011;57712;48.752;11.348;2024-03-23T15:41:15;7.13;;;1.40;;